Orbital elements of SL-3 DEB
| Launched | 13 December 1982 |
| Flight ended | – |
| Launch site | Plesetsk Missile and Space Complex, Russia |
| Owner | Commonwealth of Independent States (former USSR) |
| NORAD ID | 17755 |
| Date fetched |
Epoch osculation |
Inc. [°] |
Ecc. | RA asc node [hr] |
Arg Peri. [°] |
Mean anom [°] |
Mean motion [rev/day] |
Abs. mag |
| Date fetched |
Epoch osculation |
Inc. [°] |
Ecc. | RA asc node [hr] |
Arg Peri. [°] |
Mean anom [°] |
Mean motion [rev/day] |
Abs. mag |
| 2026 May 01 17:56 | 2026 Apr 30 15:22:08 | 81.2541 | 0.00698 | 4.8191 | 127.5688 | 44.5743 | 14.14701 | – |
| 2026 Apr 30 17:56 | 2026 Apr 30 15:22:08 | 81.2541 | 0.00698 | 4.8191 | 127.5688 | 44.5743 | 14.14701 | – |
| 2026 Apr 29 17:57 | 2026 Apr 24 08:02:06 | 81.2528 | 0.00695 | 5.2310 | 145.4048 | 44.5743 | 14.14701 | – |
| 2026 Apr 28 17:56 | 2026 Apr 24 08:02:06 | 81.2528 | 0.00695 | 5.2310 | 145.4048 | 44.5743 | 14.14701 | – |
| 2026 Apr 27 17:58 | 2026 Apr 24 08:02:06 | 81.2528 | 0.00695 | 5.2310 | 145.4048 | 44.5743 | 14.14701 | – |
| 2026 Apr 26 17:58 | 2026 Apr 24 08:02:06 | 81.2528 | 0.00695 | 5.2310 | 145.4048 | 44.5743 | 14.14701 | – |
| 2026 Apr 25 17:58 | 2026 Apr 24 08:02:06 | 81.2528 | 0.00695 | 5.2310 | 145.4048 | 44.5743 | 14.14701 | – |
| 2026 Apr 24 17:59 | 2026 Apr 24 08:02:06 | 81.2528 | 0.00695 | 5.2310 | 145.4048 | 44.5743 | 14.14701 | – |
| 2026 Apr 23 17:57 | 2026 Apr 18 17:39:13 | 81.2522 | 0.00692 | 5.5968 | 161.2450 | 44.5743 | 14.14701 | – |
| 2026 Apr 22 17:57 | 2026 Apr 18 17:39:13 | 81.2522 | 0.00692 | 5.5968 | 161.2450 | 44.5743 | 14.14701 | – |
| 2026 Apr 21 17:57 | 2026 Apr 18 17:39:13 | 81.2522 | 0.00692 | 5.5968 | 161.2450 | 44.5743 | 14.14701 | – |
| 2026 Apr 20 17:57 | 2026 Apr 18 17:39:13 | 81.2522 | 0.00692 | 5.5968 | 161.2450 | 44.5743 | 14.14701 | – |
| 2026 Apr 19 17:58 | 2026 Apr 18 17:39:13 | 81.2522 | 0.00692 | 5.5968 | 161.2450 | 44.5743 | 14.14701 | – |
| 2026 Apr 18 17:56 | 2026 Apr 13 07:13:10 | 81.2514 | 0.00690 | 5.9518 | 176.6993 | 44.5743 | 14.14701 | – |
| 2026 Apr 16 17:57 | 2026 Apr 13 07:13:10 | 81.2514 | 0.00690 | 5.9518 | 176.6993 | 44.5743 | 14.14701 | – |
| 2026 Apr 14 17:57 | 2026 Apr 13 07:13:10 | 81.2514 | 0.00690 | 5.9518 | 176.6993 | 44.5743 | 14.14701 | – |
| 2026 Apr 13 17:57 | 2026 Apr 13 07:13:10 | 81.2514 | 0.00690 | 5.9518 | 176.6993 | 44.5743 | 14.14701 | – |
| 2026 Apr 12 17:57 | 2026 Apr 07 17:25:52 | 81.2509 | 0.00687 | 6.3161 | 192.6794 | 44.5743 | 14.14701 | – |
| 2026 Apr 11 17:57 | 2026 Apr 07 17:25:52 | 81.2509 | 0.00687 | 6.3161 | 192.6794 | 44.5743 | 14.14701 | – |
| 2026 Apr 10 17:58 | 2026 Apr 07 17:25:52 | 81.2509 | 0.00687 | 6.3161 | 192.6794 | 44.5743 | 14.14701 | – |
| 2026 Apr 09 18:01 | 2026 Apr 07 17:25:52 | 81.2509 | 0.00687 | 6.3161 | 192.6794 | 44.5743 | 14.14701 | – |
| 2026 Apr 08 17:57 | 2026 Apr 07 17:25:52 | 81.2509 | 0.00687 | 6.3161 | 192.6794 | 44.5743 | 14.14701 | – |
| 2026 Apr 07 17:57 | 2026 Apr 02 01:09:03 | 81.2507 | 0.00683 | 6.6871 | 208.9586 | 44.5743 | 14.14701 | – |
| 2026 Apr 06 17:57 | 2026 Apr 02 01:09:03 | 81.2507 | 0.00683 | 6.6871 | 208.9586 | 44.5743 | 14.14701 | – |
| 2026 Apr 05 17:56 | 2026 Apr 02 01:09:03 | 81.2507 | 0.00683 | 6.6871 | 208.9586 | 44.5743 | 14.14701 | – |
| 2026 Apr 04 17:57 | 2026 Apr 02 01:09:03 | 81.2507 | 0.00683 | 6.6871 | 208.9586 | 44.5743 | 14.14701 | – |